Aviation Digital Data Service (ADDS)

Output produced by METARs form (1637 UTC 16 June 2019)
found at http://www.aviationweather.gov/metar/data/
 
Forecast for: TNCC (HATO AIR CURACAO, VI)
Text: TAF TNCC 161000Z 1612/1712 10014KT 9999 SCT018
Forecast period: 1200 UTC 16 June 2019 to 1200 UTC 17 June 2019
Forecast type: FROM: standard forecast or significant change
Winds: from the E (100 degrees) at 16 MPH (14 knots; 7.2 m/s)
Visibility: 6 or more miles 10+ km)
Ceiling: at least 12,000 feet AGL
Clouds: scattered clouds at 1800 feet AGL
Weather: no significant weather forecast for this period
Text: TEMPO 1612/1616 BKN014
Forecast period: 1200 to 1600 UTC 16 June 2019
Forecast type: TEMPORARY: The following changes expected for less than half the time period
Visibility: missing
Ceiling: 1400 feet AGL
Clouds: broken clouds at 1400 feet AGL
Weather: no significant weather forecast for this period